Time;durP1;ratioP1;P1;durP2;ratioP2;P2;SDS_P1;SDS_P2;PMS_P1;PMS_P2;Temp;Humidity;BMP_temperature;BMP_pressure;BME280_temperature;BME280_humidity;BME280_pressure;Samples;Min_cycle;Max_cycle;Signal;HPM_P1;HPM_P2
2023/07/23 00:01:29;;;;;;;5.82;3.67;;;;;;;;;;12913992;22;20441;-90
2023/07/23 00:06:34;;;;;;;6.13;3.70;;;;;;;;;;12910664;22;20918;-91
2023/07/23 00:11:38;;;;;;;6.10;4.40;;;;;;;;;;12923972;22;20364;-90
2023/07/23 00:16:40;;;;;;;9.57;5.10;;;;;;;;;;12908939;22;20372;-89
2023/07/23 00:21:42;;;;;;;8.10;5.78;;;;;;;;;;12925389;22;20376;-91
2023/07/23 00:26:46;;;;;;;7.63;5.93;;;;;;;;;;12935031;23;20438;-89
2023/07/23 00:31:48;;;;;;;8.60;5.38;;;;;;;;;;12902199;23;20360;-91
2023/07/23 00:36:51;;;;;;;6.63;5.05;;;;;;;;;;12905120;22;20368;-90
2023/07/23 00:41:55;;;;;;;8.98;5.72;;;;;;;;;;12912439;22;20376;-90
2023/07/23 00:46:59;;;;;;;10.02;5.05;;;;;;;;;;12939191;23;20872;-90
2023/07/23 00:52:02;;;;;;;7.72;4.70;;;;;;;;;;13005809;22;20381;-85
2023/07/23 00:57:06;;;;;;;7.80;4.45;;;;;;;;;;13038970;22;20743;-86
2023/07/23 01:02:09;;;;;;;7.72;4.50;;;;;;;;;;13041563;22;20446;-85
2023/07/23 01:07:12;;;;;;;6.00;4.37;;;;;;;;;;13038061;22;20399;-85
2023/07/23 01:12:17;;;;;;;6.65;4.28;;;;;;;;;;13023237;22;20422;-85
2023/07/23 01:17:20;;;;;;;5.93;3.83;;;;;;;;;;13037689;22;20837;-85
2023/07/23 01:22:24;;;;;;;8.15;3.80;;;;;;;;;;13043255;22;20385;-86
2023/07/23 01:27:26;;;;;;;6.80;3.60;;;;;;;;;;13040665;22;20361;-85
2023/07/23 01:32:29;;;;;;;6.07;3.70;;;;;;;;;;13027042;22;20357;-85
2023/07/23 01:37:33;;;;;;;5.78;3.60;;;;;;;;;;13041990;22;20365;-86
2023/07/23 01:42:35;;;;;;;5.57;3.47;;;;;;;;;;13042761;22;20863;-85
2023/07/23 01:47:37;;;;;;;5.60;3.23;;;;;;;;;;13041926;22;20681;-85
2023/07/23 01:52:42;;;;;;;6.40;3.55;;;;;;;;;;13042764;22;20841;-85
2023/07/23 01:57:45;;;;;;;4.70;3.10;;;;;;;;;;13040793;22;20383;-86
2023/07/23 02:02:47;;;;;;;5.47;3.10;;;;;;;;;;13041535;22;20377;-85
2023/07/23 02:07:51;;;;;;;5.10;3.38;;;;;;;;;;13044469;22;20434;-85
2023/07/23 02:12:53;;;;;;;3.75;2.70;;;;;;;;;;13040781;22;20365;-84
2023/07/23 02:17:56;;;;;;;4.57;3.13;;;;;;;;;;13023248;22;20418;-85
2023/07/23 02:22:59;;;;;;;6.13;3.10;;;;;;;;;;13026353;22;20438;-84
2023/07/23 02:28:02;;;;;;;4.45;3.40;;;;;;;;;;13028316;22;20833;-85
2023/07/23 02:33:05;;;;;;;5.10;3.58;;;;;;;;;;13058399;22;20361;-84
2023/07/23 02:38:09;;;;;;;5.13;3.35;;;;;;;;;;13057529;22;20418;-85
2023/07/23 02:43:12;;;;;;;5.50;3.85;;;;;;;;;;13026913;22;20438;-84
2023/07/23 02:48:14;;;;;;;3.83;3.03;;;;;;;;;;13021311;22;20365;-84
2023/07/23 02:53:18;;;;;;;5.15;3.25;;;;;;;;;;13023994;22;20361;-85
2023/07/23 02:58:21;;;;;;;5.35;3.15;;;;;;;;;;13039199;22;20361;-84
2023/07/23 03:03:24;;;;;;;5.45;3.50;;;;;;;;;;13037076;22;20435;-84
2023/07/23 03:08:28;;;;;;;4.50;3.70;;;;;;;;;;13045345;22;20915;-84
2023/07/23 03:13:30;;;;;;;6.82;3.72;;;;;;;;;;13030854;22;20365;-84
2023/07/23 03:18:32;;;;;;;5.07;3.23;;;;;;;;;;13038842;22;20426;-84
2023/07/23 03:23:36;;;;;;;5.45;3.47;;;;;;;;;;13026087;22;20955;-85
2023/07/23 03:28:38;;;;;;;4.27;3.50;;;;;;;;;;13032444;22;20399;-84
2023/07/23 03:33:41;;;;;;;5.45;3.55;;;;;;;;;;13044544;22;20361;-84
2023/07/23 03:38:44;;;;;;;5.90;3.17;;;;;;;;;;13044712;22;20848;-84
2023/07/23 03:43:47;;;;;;;4.83;3.17;;;;;;;;;;13038569;22;20384;-84
2023/07/23 03:48:49;;;;;;;5.38;3.28;;;;;;;;;;13044621;22;20581;-85
2023/07/23 03:53:53;;;;;;;4.82;2.97;;;;;;;;;;13043905;22;20431;-85
2023/07/23 03:58:55;;;;;;;3.73;2.90;;;;;;;;;;13031741;22;20361;-84
2023/07/23 04:03:59;;;;;;;5.18;3.30;;;;;;;;;;13024941;22;20433;-84
2023/07/23 04:09:03;;;;;;;4.57;3.20;;;;;;;;;;13056672;22;20382;-84
2023/07/23 04:14:05;;;;;;;4.70;3.40;;;;;;;;;;13028309;22;20829;-83
2023/07/23 04:19:08;;;;;;;5.32;3.63;;;;;;;;;;13042972;22;20365;-84
2023/07/23 04:24:11;;;;;;;4.50;3.53;;;;;;;;;;13043794;22;20411;-85
2023/07/23 04:29:14;;;;;;;5.20;3.42;;;;;;;;;;13030134;22;20415;-84
2023/07/23 04:34:16;;;;;;;5.33;3.70;;;;;;;;;;13023072;22;20353;-84
2023/07/23 04:39:20;;;;;;;6.50;3.63;;;;;;;;;;13030465;22;20353;-84
2023/07/23 04:44:23;;;;;;;5.55;3.72;;;;;;;;;;13042857;22;20373;-84
2023/07/23 04:49:25;;;;;;;5.37;3.97;;;;;;;;;;13039347;22;20573;-84
2023/07/23 04:54:29;;;;;;;5.15;3.60;;;;;;;;;;13039643;22;20442;-84
2023/07/23 04:59:31;;;;;;;5.68;3.72;;;;;;;;;;13028878;22;20357;-84
2023/07/23 05:04:34;;;;;;;5.35;4.00;;;;;;;;;;13062764;22;20372;-84
2023/07/23 05:09:38;;;;;;;5.47;3.70;;;;;;;;;;13058689;22;20365;-84
2023/07/23 05:14:40;;;;;;;5.40;4.20;;;;;;;;;;13039860;22;20361;-82
2023/07/23 05:19:42;;;;;;;7.30;3.83;;;;;;;;;;13040415;22;20361;-85
2023/07/23 05:24:46;;;;;;;6.15;4.22;;;;;;;;;;13034638;22;20380;-84
2023/07/23 05:29:49;;;;;;;6.33;3.83;;;;;;;;;;13020556;22;20369;-84
2023/07/23 05:34:53;;;;;;;4.97;4.00;;;;;;;;;;13037589;22;20438;-84
2023/07/23 05:39:57;;;;;;;5.80;4.05;;;;;;;;;;13040952;22;20415;-84
2023/07/23 05:44:59;;;;;;;6.95;4.00;;;;;;;;;;13039186;22;20376;-84
2023/07/23 05:50:02;;;;;;;6.63;3.83;;;;;;;;;;13041472;22;20422;-84
2023/07/23 05:55:07;;;;;;;4.95;3.70;;;;;;;;;;13042131;22;20919;-84
2023/07/23 06:00:10;;;;;;;4.50;3.40;;;;;;;;;;13042548;22;20416;-84
2023/07/23 06:05:12;;;;;;;6.00;3.63;;;;;;;;;;13042635;22;20434;-84
2023/07/23 06:10:16;;;;;;;4.18;2.97;;;;;;;;;;13042179;22;20365;-84
2023/07/23 06:15:20;;;;;;;4.13;3.03;;;;;;;;;;13064089;22;20909;-84
2023/07/23 06:20:22;;;;;;;4.88;3.22;;;;;;;;;;13042621;22;20390;-84
2023/07/23 06:25:26;;;;;;;5.73;3.17;;;;;;;;;;13041877;22;20377;-84
2023/07/23 06:30:28;;;;;;;5.30;3.40;;;;;;;;;;13041096;22;20411;-84
2023/07/23 06:35:32;;;;;;;4.80;3.27;;;;;;;;;;13040608;22;20361;-84
2023/07/23 06:40:36;;;;;;;4.22;2.60;;;;;;;;;;13044965;22;20527;-84
2023/07/23 06:45:39;;;;;;;3.58;2.60;;;;;;;;;;13044496;22;20702;-84
2023/07/23 06:50:42;;;;;;;3.22;2.70;;;;;;;;;;13045319;22;20402;-84
2023/07/23 06:56:04;;;;;;;2.50;1.97;;;;;;;;;;13045147;22;20365;-84
2023/07/23 07:01:08;;;;;;;3.80;2.00;;;;;;;;;;13045701;22;20357;-84
2023/07/23 07:06:10;;;;;;;3.23;2.27;;;;;;;;;;13045318;22;20373;-84
2023/07/23 07:11:14;;;;;;;3.80;2.07;;;;;;;;;;13044904;22;20438;-84
2023/07/23 07:16:17;;;;;;;3.65;2.55;;;;;;;;;;13045009;22;20892;-84
2023/07/23 07:21:19;;;;;;;3.57;2.37;;;;;;;;;;13043327;22;20365;-84
2023/07/23 07:26:23;;;;;;;4.22;2.35;;;;;;;;;;13043353;22;20415;-85
2023/07/23 07:31:26;;;;;;;2.65;2.08;;;;;;;;;;13045237;22;20528;-84
2023/07/23 07:36:28;;;;;;;3.40;2.20;;;;;;;;;;13043853;22;20361;-80
2023/07/23 07:41:32;;;;;;;2.78;2.00;;;;;;;;;;13064403;22;20716;-80
2023/07/23 07:46:34;;;;;;;3.50;2.15;;;;;;;;;;13043698;22;20414;-86
2023/07/23 07:51:38;;;;;;;3.60;2.10;;;;;;;;;;13044356;22;20674;-85
2023/07/23 07:56:43;;;;;;;3.17;2.15;;;;;;;;;;13044535;22;20366;-86
2023/07/23 08:01:46;;;;;;;4.35;2.78;;;;;;;;;;13046035;22;20373;-85
2023/07/23 08:06:49;;;;;;;3.45;2.15;;;;;;;;;;13044843;22;20442;-85
2023/07/23 08:11:54;;;;;;;4.10;2.27;;;;;;;;;;13044686;22;20361;-86
2023/07/23 08:16:57;;;;;;;6.07;2.50;;;;;;;;;;13044464;22;20361;-85
2023/07/23 08:22:00;;;;;;;3.90;2.30;;;;;;;;;;13045306;22;20365;-85
2023/07/23 08:27:07;;;;;;;4.80;2.20;;;;;;;;;;13046246;22;20438;-85
2023/07/23 08:32:13;;;;;;;3.33;2.30;;;;;;;;;;13040853;22;20820;-86
2023/07/23 08:37:16;;;;;;;4.35;2.20;;;;;;;;;;13034250;22;20369;-85
2023/07/23 08:42:47;;;;;;;3.40;2.20;;;;;;;;;;13038076;22;20840;-86
2023/07/23 08:47:55;;;;;;;3.63;2.75;;;;;;;;;;13038122;22;20852;-86
2023/07/23 08:52:57;;;;;;;3.78;2.60;;;;;;;;;;13036830;22;20365;-85
2023/07/23 08:58:02;;;;;;;3.63;2.50;;;;;;;;;;13036468;22;20434;-85
2023/07/23 09:03:07;;;;;;;3.30;2.50;;;;;;;;;;13037251;22;20373;-86
2023/07/23 09:08:09;;;;;;;3.93;2.27;;;;;;;;;;13036627;22;20385;-85
2023/07/23 09:13:15;;;;;;;3.70;2.50;;;;;;;;;;13037552;22;20369;-85
2023/07/23 09:18:19;;;;;;;5.63;2.70;;;;;;;;;;13057307;22;20836;-86
2023/07/23 09:23:25;;;;;;;3.00;2.40;;;;;;;;;;13031370;22;20710;-85
2023/07/23 09:28:29;;;;;;;3.28;2.60;;;;;;;;;;13033584;22;20450;-86
2023/07/23 09:33:34;;;;;;;3.50;2.45;;;;;;;;;;13034819;22;20369;-87
2023/07/23 09:38:39;;;;;;;4.57;2.60;;;;;;;;;;13028066;22;20381;-86
2023/07/23 09:43:43;;;;;;;4.27;2.43;;;;;;;;;;13013968;22;20377;-86
2023/07/23 09:48:49;;;;;;;4.47;2.88;;;;;;;;;;13018928;22;20388;-86
2023/07/23 09:53:51;;;;;;;6.18;3.25;;;;;;;;;;13030151;22;20439;-85
2023/07/23 09:58:55;;;;;;;5.03;2.85;;;;;;;;;;13022116;22;20456;-86
2023/07/23 10:03:59;;;;;;;5.60;3.07;;;;;;;;;;13039190;22;20462;-86
2023/07/23 10:09:03;;;;;;;4.50;2.70;;;;;;;;;;13040601;22;20442;-83
2023/07/23 10:14:07;;;;;;;4.80;3.00;;;;;;;;;;13048914;22;20912;-86
2023/07/23 10:19:10;;;;;;;4.28;2.63;;;;;;;;;;13036300;22;20971;-87
2023/07/23 10:24:13;;;;;;;4.40;2.60;;;;;;;;;;13029651;22;20722;-86
2023/07/23 10:29:21;;;;;;;4.10;2.72;;;;;;;;;;13040922;22;20399;-86
2023/07/23 10:34:41;;;;;;;4.30;2.80;;;;;;;;;;13034656;22;20407;-80
2023/07/23 10:39:45;;;;;;;4.63;2.75;;;;;;;;;;13039866;22;20674;-87
2023/07/23 10:44:48;;;;;;;4.63;3.07;;;;;;;;;;13040250;22;20384;-87
2023/07/23 10:50:10;;;;;;;4.43;3.10;;;;;;;;;;13042448;22;20910;-87
2023/07/23 10:55:12;;;;;;;4.18;2.80;;;;;;;;;;13046406;22;20377;-85
2023/07/23 11:00:23;;;;;;;5.38;3.10;;;;;;;;;;13042702;22;20434;-86
2023/07/23 11:05:25;;;;;;;5.70;3.20;;;;;;;;;;13039176;22;21304;-86
2023/07/23 11:10:45;;;;;;;4.40;2.80;;;;;;;;;;13033468;22;20368;-87
2023/07/23 11:15:51;;;;;;;6.43;3.20;;;;;;;;;;13041804;22;20686;-87
2023/07/23 11:20:54;;;;;;;5.97;3.05;;;;;;;;;;13031301;22;20376;-87
2023/07/23 11:25:57;;;;;;;4.88;3.17;;;;;;;;;;13037055;22;20376;-87
2023/07/23 11:31:00;;;;;;;6.00;3.40;;;;;;;;;;13035737;22;20377;-86
2023/07/23 11:36:03;;;;;;;4.90;3.10;;;;;;;;;;13058915;22;20364;-87
2023/07/23 11:41:06;;;;;;;6.15;3.28;;;;;;;;;;13013359;22;20364;-84
2023/07/23 11:46:09;;;;;;;5.95;3.00;;;;;;;;;;13040067;22;20381;-87
2023/07/23 11:51:12;;;;;;;7.05;3.50;;;;;;;;;;13040819;22;20373;-87
2023/07/23 11:56:15;;;;;;;7.95;3.45;;;;;;;;;;13042262;22;20373;-87
2023/07/23 12:01:18;;;;;;;5.03;3.30;;;;;;;;;;13041904;22;20438;-87
2023/07/23 12:06:21;;;;;;;8.18;3.60;;;;;;;;;;13039370;22;20384;-87
2023/07/23 12:11:25;;;;;;;6.90;3.47;;;;;;;;;;13038646;22;20973;-85
2023/07/23 12:16:38;;;;;;;6.60;3.75;;;;;;;;;;13037231;22;20369;-86
2023/07/23 12:21:42;;;;;;;6.77;3.23;;;;;;;;;;13037508;22;20373;-86
2023/07/23 12:26:45;;;;;;;5.75;3.30;;;;;;;;;;13036426;22;20406;-86
2023/07/23 12:31:50;;;;;;;7.03;3.53;;;;;;;;;;13025638;22;20373;-86
2023/07/23 12:36:52;;;;;;;5.82;3.60;;;;;;;;;;13017764;22;20849;-87
2023/07/23 12:41:54;;;;;;;5.35;3.28;;;;;;;;;;13024659;22;20377;-86
2023/07/23 12:46:58;;;;;;;4.85;3.33;;;;;;;;;;13052725;22;20450;-87
2023/07/23 12:52:00;;;;;;;6.27;3.50;;;;;;;;;;13032824;22;20357;-87
2023/07/23 12:57:03;;;;;;;4.57;3.08;;;;;;;;;;13031785;22;20857;-87
2023/07/23 13:02:07;;;;;;;4.50;3.00;;;;;;;;;;13035784;22;20369;-80
2023/07/23 13:37:50;;;;;;;7.90;3.70;;;;;;;;;;12921316;22;2361535;-83
2023/07/23 13:42:52;;;;;;;5.57;3.22;;;;;;;;;;13000827;22;20374;-87
2023/07/23 13:47:55;;;;;;;4.80;3.20;;;;;;;;;;12992419;22;20363;-87
2023/07/23 13:52:59;;;;;;;4.93;3.65;;;;;;;;;;12995010;22;20936;-88
2023/07/23 13:58:02;;;;;;;7.97;3.42;;;;;;;;;;12990138;22;20443;-87
2023/07/23 14:03:04;;;;;;;6.30;3.47;;;;;;;;;;12987886;22;20385;-87
2023/07/23 14:08:08;;;;;;;5.38;3.22;;;;;;;;;;12986665;22;20366;-86
2023/07/23 14:13:10;;;;;;;5.00;3.07;;;;;;;;;;12983465;22;20439;-88
2023/07/23 14:18:13;;;;;;;5.40;3.20;;;;;;;;;;12974473;22;20428;-87
2023/07/23 14:23:17;;;;;;;5.82;3.28;;;;;;;;;;12964940;22;20416;-88
2023/07/23 14:28:19;;;;;;;5.40;3.20;;;;;;;;;;12973202;22;20696;-88
2023/07/23 14:33:21;;;;;;;5.30;3.10;;;;;;;;;;12976279;22;20425;-86
2023/07/23 14:38:25;;;;;;;6.17;3.60;;;;;;;;;;12974450;22;20358;-88
2023/07/23 14:43:28;;;;;;;5.60;3.23;;;;;;;;;;12976058;22;20387;-91
2023/07/23 14:48:30;;;;;;;5.50;3.33;;;;;;;;;;12966227;22;20397;-88
2023/07/23 14:53:34;;;;;;;6.03;3.60;;;;;;;;;;12975811;22;20393;-89
2023/07/23 14:58:36;;;;;;;5.20;3.60;;;;;;;;;;12963616;22;20924;-90
2023/07/23 15:03:39;;;;;;;7.28;3.80;;;;;;;;;;12999555;22;20834;-89
2023/07/23 15:08:42;;;;;;;6.17;3.90;;;;;;;;;;12967466;22;20366;-90
2023/07/23 15:13:45;;;;;;;7.47;3.40;;;;;;;;;;12965957;22;20946;-90
2023/07/23 15:18:48;;;;;;;7.40;3.40;;;;;;;;;;12969083;22;20824;-89
2023/07/23 15:23:53;;;;;;;6.40;3.47;;;;;;;;;;12972210;22;20432;-89
2023/07/23 15:28:58;;;;;;;5.40;3.50;;;;;;;;;;12936841;22;20362;-88
2023/07/23 15:34:00;;;;;;;7.33;3.70;;;;;;;;;;12981267;22;20456;-88
2023/07/23 15:39:04;;;;;;;6.00;3.50;;;;;;;;;;12989242;22;20355;-88
2023/07/23 15:44:06;;;;;;;5.55;3.80;;;;;;;;;;12971808;22;20432;-88
2023/07/23 15:49:09;;;;;;;8.15;3.85;;;;;;;;;;12962173;22;20371;-89
2023/07/23 15:54:13;;;;;;;6.45;3.72;;;;;;;;;;12969454;22;20818;-88
2023/07/23 15:59:16;;;;;;;6.33;3.80;;;;;;;;;;12978009;22;20367;-88
2023/07/23 16:04:18;;;;;;;6.75;4.07;;;;;;;;;;12964815;22;20421;-88
2023/07/23 16:09:22;;;;;;;6.07;3.95;;;;;;;;;;12987443;22;20561;-89
2023/07/23 16:14:25;;;;;;;6.43;4.05;;;;;;;;;;12974289;22;20359;-88
2023/07/23 16:19:38;;;;;;;7.30;3.92;;;;;;;;;;12979127;22;20389;-90
2023/07/23 16:24:42;;;;;;;6.60;4.20;;;;;;;;;;12973337;22;20444;-89
2023/07/23 16:29:46;;;;;;;6.77;3.67;;;;;;;;;;12966884;22;20393;-87
2023/07/23 16:34:49;;;;;;;5.25;3.50;;;;;;;;;;12975422;22;20827;-89
2023/07/23 16:39:53;;;;;;;6.80;4.07;;;;;;;;;;12971777;22;20417;-89
2023/07/23 16:44:57;;;;;;;7.70;4.40;;;;;;;;;;12975137;22;20382;-90
2023/07/23 16:50:00;;;;;;;6.78;4.00;;;;;;;;;;12977043;22;20367;-89
2023/07/23 16:55:04;;;;;;;7.68;4.20;;;;;;;;;;12968585;22;20893;-83
2023/07/23 17:00:07;;;;;;;5.73;4.03;;;;;;;;;;12976219;22;20367;-90
2023/07/23 17:05:10;;;;;;;7.20;3.80;;;;;;;;;;12975764;22;20401;-90
2023/07/23 17:10:13;;;;;;;6.93;4.35;;;;;;;;;;12975858;22;20389;-87
2023/07/23 17:15:16;;;;;;;7.65;4.18;;;;;;;;;;12976677;22;20366;-90
2023/07/23 17:20:19;;;;;;;5.28;4.00;;;;;;;;;;12974488;22;20416;-90
2023/07/23 17:25:22;;;;;;;6.07;3.97;;;;;;;;;;12969149;22;20382;-90
2023/07/23 17:30:25;;;;;;;7.33;3.73;;;;;;;;;;12981289;22;20367;-90
2023/07/23 17:35:27;;;;;;;7.57;4.13;;;;;;;;;;12972031;22;20363;-89
2023/07/23 17:40:31;;;;;;;7.20;4.18;;;;;;;;;;12970298;22;20375;-90
2023/07/23 17:45:33;;;;;;;6.77;4.50;;;;;;;;;;12968399;22;20890;-90
2023/07/23 17:50:35;;;;;;;5.93;4.07;;;;;;;;;;12972886;22;20367;-90
2023/07/23 17:55:39;;;;;;;7.57;4.40;;;;;;;;;;12973805;22;20618;-89
2023/07/23 18:00:41;;;;;;;7.15;4.40;;;;;;;;;;12976755;22;20436;-90
2023/07/23 18:05:50;;;;;;;7.85;4.68;;;;;;;;;;12983473;22;20378;-89
2023/07/23 18:10:54;;;;;;;8.35;4.75;;;;;;;;;;12985183;22;20806;-90
2023/07/23 18:15:56;;;;;;;6.60;4.32;;;;;;;;;;12980114;22;20366;-90
2023/07/23 18:20:59;;;;;;;7.05;4.50;;;;;;;;;;12974880;22;20452;-89
2023/07/23 18:26:03;;;;;;;7.53;4.75;;;;;;;;;;12978763;22;20382;-92
2023/07/23 18:31:05;;;;;;;8.73;5.00;;;;;;;;;;12979289;22;20800;-90
2023/07/23 18:36:08;;;;;;;6.90;4.45;;;;;;;;;;12979118;22;20362;-90
2023/07/23 18:41:14;;;;;;;7.53;4.68;;;;;;;;;;12981121;22;20393;-90
2023/07/23 18:46:17;;;;;;;9.65;5.13;;;;;;;;;;12980988;22;20383;-89
2023/07/23 18:51:19;;;;;;;7.47;4.90;;;;;;;;;;12983002;22;20355;-89
2023/07/23 18:56:23;;;;;;;7.10;5.15;;;;;;;;;;12984125;22;20393;-90
2023/07/23 19:01:26;;;;;;;8.77;5.53;;;;;;;;;;13000393;22;20370;-89
2023/07/23 19:06:28;;;;;;;8.30;4.78;;;;;;;;;;12974021;22;20379;-89
2023/07/23 19:11:32;;;;;;;8.20;5.20;;;;;;;;;;12977661;22;20452;-89
2023/07/23 19:16:35;;;;;;;9.43;5.75;;;;;;;;;;12973675;22;20374;-87
2023/07/23 19:21:37;;;;;;;9.48;5.35;;;;;;;;;;12970835;22;20479;-88
2023/07/23 19:26:41;;;;;;;9.82;6.15;;;;;;;;;;12974746;22;20947;-88
2023/07/23 19:31:43;;;;;;;8.68;5.10;;;;;;;;;;12963779;22;20374;-87
2023/07/23 19:36:46;;;;;;;10.20;5.65;;;;;;;;;;12967528;22;20850;-90
2023/07/23 19:41:51;;;;;;;7.77;5.30;;;;;;;;;;12986182;22;20460;-89
2023/07/23 19:46:53;;;;;;;9.23;5.40;;;;;;;;;;12972012;22;21222;-89
2023/07/23 19:51:56;;;;;;;9.60;5.70;;;;;;;;;;12989241;22;20528;-88
2023/07/23 19:56:59;;;;;;;9.23;5.50;;;;;;;;;;12973286;22;20401;-89
2023/07/23 20:02:02;;;;;;;8.97;5.70;;;;;;;;;;12970159;22;20370;-89
2023/07/23 20:07:05;;;;;;;11.30;6.32;;;;;;;;;;12970819;22;20452;-88
2023/07/23 20:12:09;;;;;;;8.23;6.20;;;;;;;;;;12971431;22;20433;-91
2023/07/23 20:17:11;;;;;;;9.95;5.90;;;;;;;;;;12969394;22;20533;-88
2023/07/23 20:22:13;;;;;;;9.05;5.82;;;;;;;;;;12973580;22;20440;-89
2023/07/23 20:27:17;;;;;;;12.32;6.22;;;;;;;;;;12973719;22;20378;-89
2023/07/23 20:32:20;;;;;;;11.13;6.57;;;;;;;;;;12974604;22;20378;-89
2023/07/23 20:37:23;;;;;;;10.07;5.95;;;;;;;;;;12975312;22;21017;-89
2023/07/23 20:42:28;;;;;;;10.65;6.40;;;;;;;;;;12975413;22;20436;-89
2023/07/23 20:47:30;;;;;;;11.30;6.28;;;;;;;;;;12989863;22;20382;-89
2023/07/23 20:52:32;;;;;;;10.40;6.93;;;;;;;;;;12972270;22;20851;-90
2023/07/23 20:57:36;;;;;;;11.95;6.38;;;;;;;;;;12973019;22;20971;-89
2023/07/23 21:02:38;;;;;;;10.65;6.53;;;;;;;;;;12971120;22;20362;-89
2023/07/23 21:07:41;;;;;;;10.60;6.45;;;;;;;;;;12975407;22;20467;-90
2023/07/23 21:12:46;;;;;;;12.18;6.47;;;;;;;;;;12975491;22;20382;-89
2023/07/23 21:17:48;;;;;;;10.30;7.03;;;;;;;;;;12978747;22;20440;-90
2023/07/23 21:22:51;;;;;;;8.50;6.53;;;;;;;;;;12981019;22;20371;-90
2023/07/23 21:27:54;;;;;;;10.85;6.00;;;;;;;;;;12984110;22;20378;-89
2023/07/23 21:32:57;;;;;;;8.38;6.40;;;;;;;;;;12982235;22;20819;-89
2023/07/23 21:37:59;;;;;;;9.55;6.25;;;;;;;;;;12981394;22;20834;-89
2023/07/23 21:43:03;;;;;;;10.18;6.88;;;;;;;;;;12981891;22;20396;-89
2023/07/23 21:48:06;;;;;;;12.82;6.68;;;;;;;;;;12985152;22;20382;-90
2023/07/23 21:53:10;;;;;;;9.98;6.53;;;;;;;;;;12984468;22;20428;-89
2023/07/23 21:58:14;;;;;;;10.98;6.00;;;;;;;;;;12983791;22;20389;-89
2023/07/23 22:03:17;;;;;;;11.97;7.13;;;;;;;;;;12983981;22;20397;-89
2023/07/23 22:08:20;;;;;;;10.50;6.97;;;;;;;;;;13006273;22;20367;-90
2023/07/23 22:13:23;;;;;;;10.88;7.22;;;;;;;;;;12984728;22;20366;-90
2023/07/23 22:18:26;;;;;;;11.05;7.88;;;;;;;;;;12983138;22;20366;-89
2023/07/23 22:23:28;;;;;;;12.00;8.25;;;;;;;;;;12982399;22;20359;-90
2023/07/23 22:28:32;;;;;;;12.50;9.27;;;;;;;;;;13004569;22;20947;-90
2023/07/23 22:33:36;;;;;;;13.57;8.90;;;;;;;;;;12982472;22;20432;-90
2023/07/23 22:38:38;;;;;;;16.77;10.65;;;;;;;;;;12983632;22;20396;-90
2023/07/23 22:43:42;;;;;;;13.97;9.80;;;;;;;;;;12984961;22;20413;-88
2023/07/23 22:48:44;;;;;;;15.45;10.48;;;;;;;;;;13006847;22;21079;-89
2023/07/23 22:53:46;;;;;;;16.65;9.98;;;;;;;;;;12984698;22;20425;-89
2023/07/23 22:58:50;;;;;;;13.95;9.63;;;;;;;;;;12985906;22;20362;-90
2023/07/23 23:03:53;;;;;;;14.52;8.80;;;;;;;;;;12985198;22;20834;-87
2023/07/23 23:08:56;;;;;;;13.43;8.60;;;;;;;;;;12987307;22;20379;-88
2023/07/23 23:14:00;;;;;;;12.25;8.50;;;;;;;;;;12986226;22;20362;-90
2023/07/23 23:19:02;;;;;;;12.35;8.48;;;;;;;;;;12986125;22;20394;-89
2023/07/23 23:24:06;;;;;;;12.00;8.43;;;;;;;;;;12986904;22;20363;-89
2023/07/23 23:29:09;;;;;;;9.82;8.05;;;;;;;;;;12987104;22;20382;-89
2023/07/23 23:34:12;;;;;;;12.57;7.90;;;;;;;;;;12984695;22;20527;-89
2023/07/23 23:39:14;;;;;;;12.07;7.60;;;;;;;;;;12985627;22;20363;-90
2023/07/23 23:44:18;;;;;;;11.55;6.95;;;;;;;;;;12986741;22;20403;-89
2023/07/23 23:49:20;;;;;;;11.00;7.60;;;;;;;;;;12985697;22;21091;-89
2023/07/23 23:54:22;;;;;;;16.87;7.10;;;;;;;;;;12986602;22;20385;-90
2023/07/23 23:59:26;;;;;;;10.88;7.53;;;;;;;;;;12986365;22;20429;-90
